CheckWX is a tool to help pilots better visualize weather data.  It is not intended as a substitute for an official pre-flight weather briefing.

07:30:39 UTC

KCGS METAR
College Park Airport
College Park, Maryland, USA
Current

2 hours ago

KCGS 200543Z AUTO 00000KT 10SM CLR 26/19 A3002 RMK AO1 T02550186
Observed
Aug-20 @ 05:43 UTC
Visibility
10 SM
Flight Rules
VFR
Cloud Levels
  • Clear skies
Temperature
26°C / 79°F
Dewpoint
19°C / 66°F
Humidity
65%
Altimeter
30.02" Hg
Pressure
1016.62 hPa
Previous

2 hours ago

KCGS 200523Z AUTO 00000KT 10SM CLR 25/19 A3002 RMK AO1 T02530188
Observed
Aug-20 @ 05:23 UTC
Visibility
10 SM
Flight Rules
VFR
Cloud Levels
  • Clear skies
Temperature
25°C / 77°F
Dewpoint
19°C / 66°F
Humidity
69%
Altimeter
30.02" Hg
Pressure
1016.62 hPa
Previous

2 hours ago

KCGS 200503Z AUTO 36003KT 10SM CLR 25/19 A3002 RMK AO1 T02540187
Observed
Aug-20 @ 05:03 UTC
Wind
  • 360° at 3 KTS
Visibility
10 SM
Flight Rules
VFR
Cloud Levels
  • Clear skies
Temperature
25°C / 77°F
Dewpoint
19°C / 66°F
Humidity
69%
Altimeter
30.02" Hg
Pressure
1016.62 hPa